Hamburg Express — DFKM2 — position and weather

sailwx.info

Track history (hours):
 
Tides and Currents Weather Stations Pressure Air Temp Water Temp Dewpoint Dewpoint Depression Visibility Wind Speed Wind Dir Waves Ship Positions

Hamburg Express

Last reported at 2015-Apr-28 12:00 UTC. Time now 2015-Apr-28 14:22 UTC.
Position N 04°00' E 099°24'.

Length 366 m; draft 12.8 m.

Type: Cargo ship. MMSI: 218774000.

Wind from 320 at 6 knots

Barometer 1009.5 mb
Air temperature 28.6 ° C
Visibility: greater than 10.8 NM
Dewpoint 23.3 ° C
Water temperature 29.4 ° C

Date/timePositionNaut miles runAvg speedWind from/ knotsBaromVisibWave heightAir tempDewpointWater temp
2015-Apr-28 12:00N 04°00' E 099°24'19116.7 320 / 61009.510.8 28.623.329.4
2015-Apr-28 00:33N 02°11' E 102°00'1817.2
2015-Apr-27 23:32N 01°58' E 102°13'1717.0
2015-Apr-27 22:33N 01°50' E 102°27'1717.1
2015-Apr-27 21:33N 01°43' E 102°43'1716.9
2015-Apr-27 20:33N 01°34' E 102°57'1917.3
2015-Apr-27 19:27N 01°23' E 103°13'3417.8
2015-Apr-27 17:32N 01°08' E 103°43'1010.4
2015-Apr-27 16:34N 01°15' E 103°51'1 1.3
2015-Apr-27 15:30N 01°16' E 103°51'0 0.0
2015-Apr-27 14:33N 01°16' E 103°51'0 0.0
2015-Apr-27 13:30N 01°16' E 103°51'0 0.0
2015-Apr-27 12:30N 01°16' E 103°51'0 0.0
2015-Apr-27 11:33N 01°16' E 103°51'0 0.0
2015-Apr-27 10:30N 01°16' E 103°51'0 0.0
2015-Apr-27 09:27N 01°16' E 103°51'0 0.0
2015-Apr-27 08:30N 01°16' E 103°51'0 0.0
2015-Apr-27 07:30N 01°16' E 103°51'0 0.0
2015-Apr-27 06:30N 01°16' E 103°51'0 0.0
2015-Apr-27 04:30N 01°16' E 103°51'0 0.0
2015-Apr-27 03:30N 01°16' E 103°51'0 0.0
2015-Apr-27 02:15N 01°16' E 103°51'0 0.0
2015-Apr-27 01:33N 01°16' E 103°51'0 0.0
2015-Apr-27 00:30N 01°16' E 103°51'0 0.0
2015-Apr-26 23:30N 01°16' E 103°51'0 0.0
2015-Apr-26 22:06N 01°16' E 103°51'0 0.0
2015-Apr-26 21:30N 01°16' E 103°51'0 0.0
2015-Apr-26 20:33N 01°16' E 103°51'5 4.8
2015-Apr-26 19:34N 01°14' E 103°55'1515.0
2015-Apr-26 18:33N 01°17' E 104°10'33017.8
2015-Apr-26 00:00N 06°00' E 107°00'   060 / 161010.910.8 1.530.124.028.1
2015-Apr-23 12:32N 22°05' E 114°28'1717.4
2015-Apr-23 11:34N 22°22' E 114°29'16 1.3
2015-Apr-22 23:14N 22°34' E 114°17'2112.3
2015-Apr-22 21:33N 22°22' E 114°35'12417.7
2015-Apr-22 14:34N 22°51' E 116°45'1917.3
2015-Apr-22 13:29N 22°57' E 117°05'3617.1
2015-Apr-22 11:22N 23°17' E 117°37'1417.4
2015-Apr-22 10:33N 23°27' E 117°48'2517.7
2015-Apr-22 09:08N 23°42' E 118°10'1118.0
2015-Apr-22 08:33N 23°49' E 118°19'1918.5
2015-Apr-22 07:31N 24°01' E 118°35'2319.3
2015-Apr-22 06:18N 24°16' E 118°54'1518.9
2015-Apr-22 05:32N 24°25' E 119°07'2118.6
2015-Apr-22 04:26N 24°38' E 119°25'1618.2
2015-Apr-22 03:33N 24°48' E 119°38'18319.2
2015-Apr-21 18:00N 27°18' E 121°36'19815.9 360 / 101019.210.8 0.515.012.314.4
2015-Apr-21 05:33N 30°32' E 122°25'1313.2
2015-Apr-21 04:33N 30°34' E 122°10'5 0.9
2015-Apr-20 23:27N 30°36' E 122°05'0 0.0
2015-Apr-20 22:32N 30°36' E 122°05'0 0.1
2015-Apr-20 21:29N 30°36' E 122°05'0 0.1
2015-Apr-20 20:26N 30°36' E 122°05'0 0.0
2015-Apr-20 15:26N 30°36' E 122°05'0 0.0
2015-Apr-19 23:33N 30°36' E 122°05'3 2.8
2015-Apr-19 22:30N 30°35' E 122°08'9 9.4
2015-Apr-19 21:33N 30°33' E 122°18'6 6.3
2015-Apr-19 20:32N 30°32' E 122°26'8 7.3
2015-Apr-19 19:29N 30°31' E 122°34'8 8.3
2015-Apr-19 18:32N 30°29' E 122°43'1010.7
2015-Apr-19 17:33N 30°23' E 122°54'18 8.7
2015-Apr-19 15:29N 30°06' E 123°00'1511.5
2015-Apr-19 14:11N 29°55' E 122°49'711.8
2015-Apr-19 13:33N 29°49' E 122°44'1111.1
2015-Apr-19 12:33N 29°41' E 122°35'9 9.1
2015-Apr-19 11:33N 29°42' E 122°24'9 8.8
2015-Apr-19 10:33N 29°47' E 122°16'1211.6
2015-Apr-19 09:33N 29°55' E 122°06'1413.7
2015-Apr-19 08:33N 29°57' E 121°50'1 0.2
2015-Apr-19 06:03N 29°57' E 121°50'0 0.0
2015-Apr-19 05:27N 29°57' E 121°50'0 0.0
2015-Apr-19 04:33N 29°57' E 121°50'0 0.0
2015-Apr-19 03:33N 29°57' E 121°50'0 0.0
2015-Apr-19 02:33N 29°57' E 121°50'0 0.0
2015-Apr-19 01:33N 29°57' E 121°50'0 0.0
2015-Apr-19 00:33N 29°57' E 121°50'0 0.0
2015-Apr-18 23:27N 29°57' E 121°50'0 0.0
2015-Apr-18 22:33N 29°57' E 121°50'0 0.0
2015-Apr-18 21:33N 29°57' E 121°50'0 0.0
2015-Apr-18 20:33N 29°57' E 121°50'0 0.0
2015-Apr-18 19:33N 29°57' E 121°50'0 0.0
2015-Apr-18 18:33N 29°57' E 121°50'0 0.0
2015-Apr-18 17:33N 29°57' E 121°50'0 0.0
2015-Apr-18 16:33N 29°57' E 121°50'0 0.0
2015-Apr-18 15:27N 29°57' E 121°50'0 0.0
2015-Apr-18 14:06N 29°57' E 121°50'0 0.0
2015-Apr-18 13:09N 29°57' E 121°50'0 0.0
2015-Apr-18 12:21N 29°57' E 121°50'  
Track history (hours):
 
Tides and Currents Weather Stations Pressure Air Temp Water Temp Dewpoint Dewpoint Depression Visibility Wind Speed Wind Dir Waves Ship Positions

Hamburg Express

Last reported at 2015-Apr-28 12:00 UTC. Time now 2015-Apr-28 14:22 UTC.
Position N 04°00' E 099°24'.

Length 366 m; draft 12.8 m.

Type: Cargo ship. MMSI: 218774000.

Wind from 320 at 6 knots

Barometer 1009.5 mb
Air temperature 28.6 ° C
Visibility: greater than 10.8 NM
Dewpoint 23.3 ° C
Water temperature 29.4 ° C

Date/timePositionNaut miles runAvg speedWind from/ knotsBaromVisibWave heightAir tempDewpointWater temp
2015-Apr-28 12:00N 04°00' E 099°24'19116.7 320 / 61009.510.8 28.623.329.4
2015-Apr-28 00:33N 02°11' E 102°00'1817.2
2015-Apr-27 23:32N 01°58' E 102°13'1717.0
2015-Apr-27 22:33N 01°50' E 102°27'1717.1
2015-Apr-27 21:33N 01°43' E 102°43'1716.9
2015-Apr-27 20:33N 01°34' E 102°57'1917.3
2015-Apr-27 19:27N 01°23' E 103°13'3417.8
2015-Apr-27 17:32N 01°08' E 103°43'1010.4
2015-Apr-27 16:34N 01°15' E 103°51'1 1.3
2015-Apr-27 15:30N 01°16' E 103°51'0 0.0
2015-Apr-27 14:33N 01°16' E 103°51'0 0.0
2015-Apr-27 13:30N 01°16' E 103°51'0 0.0
2015-Apr-27 12:30N 01°16' E 103°51'0 0.0
2015-Apr-27 11:33N 01°16' E 103°51'0 0.0
2015-Apr-27 10:30N 01°16' E 103°51'0 0.0
2015-Apr-27 09:27N 01°16' E 103°51'0 0.0
2015-Apr-27 08:30N 01°16' E 103°51'0 0.0
2015-Apr-27 07:30N 01°16' E 103°51'0 0.0
2015-Apr-27 06:30N 01°16' E 103°51'0 0.0
2015-Apr-27 04:30N 01°16' E 103°51'0 0.0
2015-Apr-27 03:30N 01°16' E 103°51'0 0.0
2015-Apr-27 02:15N 01°16' E 103°51'0 0.0
2015-Apr-27 01:33N 01°16' E 103°51'0 0.0
2015-Apr-27 00:30N 01°16' E 103°51'0 0.0
2015-Apr-26 23:30N 01°16' E 103°51'0 0.0
2015-Apr-26 22:06N 01°16' E 103°51'0 0.0
2015-Apr-26 21:30N 01°16' E 103°51'0 0.0
2015-Apr-26 20:33N 01°16' E 103°51'5 4.8
2015-Apr-26 19:34N 01°14' E 103°55'1515.0
2015-Apr-26 18:33N 01°17' E 104°10'33017.8
2015-Apr-26 00:00N 06°00' E 107°00'   060 / 161010.910.8 1.530.124.028.1
2015-Apr-23 12:32N 22°05' E 114°28'1717.4
2015-Apr-23 11:34N 22°22' E 114°29'16 1.3
2015-Apr-22 23:14N 22°34' E 114°17'2112.3
2015-Apr-22 21:33N 22°22' E 114°35'12417.7
2015-Apr-22 14:34N 22°51' E 116°45'1917.3
2015-Apr-22 13:29N 22°57' E 117°05'3617.1
2015-Apr-22 11:22N 23°17' E 117°37'1417.4
2015-Apr-22 10:33N 23°27' E 117°48'2517.7
2015-Apr-22 09:08N 23°42' E 118°10'1118.0
2015-Apr-22 08:33N 23°49' E 118°19'1918.5
2015-Apr-22 07:31N 24°01' E 118°35'2319.3
2015-Apr-22 06:18N 24°16' E 118°54'1518.9
2015-Apr-22 05:32N 24°25' E 119°07'2118.6
2015-Apr-22 04:26N 24°38' E 119°25'1618.2
2015-Apr-22 03:33N 24°48' E 119°38'18319.2
2015-Apr-21 18:00N 27°18' E 121°36'19815.9 360 / 101019.210.8 0.515.012.314.4
2015-Apr-21 05:33N 30°32' E 122°25'1313.2
2015-Apr-21 04:33N 30°34' E 122°10'5 0.9
2015-Apr-20 23:27N 30°36' E 122°05'0 0.0
2015-Apr-20 22:32N 30°36' E 122°05'0 0.1
2015-Apr-20 21:29N 30°36' E 122°05'0 0.1
2015-Apr-20 20:26N 30°36' E 122°05'0 0.0
2015-Apr-20 15:26N 30°36' E 122°05'0 0.0
2015-Apr-19 23:33N 30°36' E 122°05'3 2.8
2015-Apr-19 22:30N 30°35' E 122°08'9 9.4
2015-Apr-19 21:33N 30°33' E 122°18'6 6.3
2015-Apr-19 20:32N 30°32' E 122°26'8 7.3
2015-Apr-19 19:29N 30°31' E 122°34'8 8.3
2015-Apr-19 18:32N 30°29' E 122°43'1010.7
2015-Apr-19 17:33N 30°23' E 122°54'18 8.7
2015-Apr-19 15:29N 30°06' E 123°00'1511.5
2015-Apr-19 14:11N 29°55' E 122°49'711.8
2015-Apr-19 13:33N 29°49' E 122°44'1111.1
2015-Apr-19 12:33N 29°41' E 122°35'9 9.1
2015-Apr-19 11:33N 29°42' E 122°24'9 8.8
2015-Apr-19 10:33N 29°47' E 122°16'1211.6
2015-Apr-19 09:33N 29°55' E 122°06'1413.7
2015-Apr-19 08:33N 29°57' E 121°50'1 0.2
2015-Apr-19 06:03N 29°57' E 121°50'0 0.0
2015-Apr-19 05:27N 29°57' E 121°50'0 0.0
2015-Apr-19 04:33N 29°57' E 121°50'0 0.0
2015-Apr-19 03:33N 29°57' E 121°50'0 0.0
2015-Apr-19 02:33N 29°57' E 121°50'0 0.0
2015-Apr-19 01:33N 29°57' E 121°50'0 0.0
2015-Apr-19 00:33N 29°57' E 121°50'0 0.0
2015-Apr-18 23:27N 29°57' E 121°50'0 0.0
2015-Apr-18 22:33N 29°57' E 121°50'0 0.0
2015-Apr-18 21:33N 29°57' E 121°50'0 0.0
2015-Apr-18 20:33N 29°57' E 121°50'0 0.0
2015-Apr-18 19:33N 29°57' E 121°50'0 0.0
2015-Apr-18 18:33N 29°57' E 121°50'0 0.0
2015-Apr-18 17:33N 29°57' E 121°50'0 0.0
2015-Apr-18 16:33N 29°57' E 121°50'0 0.0
2015-Apr-18 15:27N 29°57' E 121°50'0 0.0
2015-Apr-18 14:06N 29°57' E 121°50'0 0.0
2015-Apr-18 13:09N 29°57' E 121°50'0 0.0
2015-Apr-18 12:21N 29°57' E 121°50'  

Dump ship's entire track history